createdAt,value
2023-08-18T00:00:33.054Z,100.00
2023-08-18T00:03:06.064Z,100.00
2023-08-18T00:05:38.856Z,100.00
2023-08-18T00:08:11.359Z,100.00
2023-08-18T00:10:44.028Z,100.00
2023-08-18T00:13:16.465Z,100.00
2023-08-18T00:15:48.914Z,100.00
2023-08-18T00:18:21.450Z,100.00
2023-08-18T00:20:54.433Z,100.00
2023-08-18T00:23:27.173Z,100.00
2023-08-18T00:25:59.509Z,100.00
2023-08-18T00:28:31.983Z,100.00
2023-08-18T00:31:04.633Z,100.00
2023-08-18T00:33:37.340Z,100.00
2023-08-18T00:36:13.114Z,100.00
2023-08-18T00:38:47.038Z,100.00
2023-08-18T00:41:40.157Z,100.00
2023-08-18T00:44:12.717Z,100.00
2023-08-18T00:46:46.132Z,100.00
2023-08-18T00:49:20.306Z,100.00
2023-08-18T00:51:53.772Z,100.00
2023-08-18T00:54:26.446Z,100.00
2023-08-18T00:57:00.010Z,100.00
2023-08-18T00:59:32.774Z,100.00
2023-08-18T01:02:07.179Z,100.00
2023-08-18T01:04:41.427Z,100.00
2023-08-18T01:07:15.646Z,100.00
2023-08-18T01:09:49.035Z,100.00
2023-08-18T01:12:29.567Z,100.00
2023-08-18T01:15:10.846Z,100.00
2023-08-18T01:17:50.768Z,100.00
2023-08-18T01:20:24.881Z,100.00
2023-08-18T01:23:00.345Z,100.00
2023-08-18T01:25:33.846Z,100.00
2023-08-18T01:28:07.796Z,100.00
2023-08-18T01:30:48.646Z,100.00
2023-08-18T01:33:28.489Z,100.00
2023-08-18T01:36:06.316Z,100.00
2023-08-18T01:38:39.787Z,100.00
2023-08-18T01:41:13.994Z,100.00
2023-08-18T01:43:46.499Z,100.00
2023-08-18T01:46:19.414Z,100.00
2023-08-18T01:48:51.891Z,100.00
2023-08-18T01:51:24.335Z,100.00
2023-08-18T01:53:56.865Z,100.00
2023-08-18T01:56:29.358Z,100.00
2023-08-18T01:59:01.949Z,100.00
2023-08-18T02:01:34.517Z,100.00
2023-08-18T02:04:08.277Z,100.00
2023-08-18T02:06:40.888Z,100.00
2023-08-18T02:09:14.033Z,100.00
2023-08-18T02:11:46.685Z,100.00
2023-08-18T02:14:19.547Z,100.00
2023-08-18T02:16:52.799Z,100.00
2023-08-18T02:19:23.358Z,100.00
2023-08-18T02:21:57.309Z,100.00
2023-08-18T02:24:30.996Z,100.00
2023-08-18T02:27:03.527Z,100.00
2023-08-18T02:29:36.347Z,100.00
2023-08-18T02:32:09.189Z,100.00
2023-08-18T02:34:41.455Z,100.00
2023-08-18T02:37:13.947Z,100.00
2023-08-18T02:39:46.687Z,100.00
2023-08-18T02:42:19.949Z,100.00
2023-08-18T02:44:50.447Z,100.00
2023-08-18T02:47:23.006Z,100.00
2023-08-18T02:49:55.889Z,100.00
2023-08-18T02:52:28.823Z,100.00
2023-08-18T02:55:01.685Z,100.00
2023-08-18T02:57:33.887Z,100.00
2023-08-18T03:00:06.922Z,100.00
2023-08-18T03:02:39.403Z,100.00
2023-08-18T03:05:12.812Z,100.00
2023-08-18T03:07:45.231Z,100.00
2023-08-18T03:10:19.497Z,100.00
2023-08-18T03:12:51.849Z,100.00
2023-08-18T03:15:24.777Z,100.00
2023-08-18T03:17:57.232Z,100.00
2023-08-18T03:20:30.190Z,100.00
2023-08-18T03:23:02.446Z,100.00
2023-08-18T03:25:34.597Z,100.00
2023-08-18T03:28:11.404Z,100.00
2023-08-18T03:30:45.727Z,100.00
2023-08-18T03:33:19.059Z,100.00
2023-08-18T03:35:54.474Z,100.00
2023-08-18T03:38:27.502Z,100.00
2023-08-18T03:41:01.633Z,100.00
2023-08-18T03:43:35.154Z,100.00
2023-08-18T03:46:22.487Z,100.00
2023-08-18T03:48:57.051Z,100.00
2023-08-18T03:51:30.708Z,100.00
2023-08-18T03:54:04.675Z,100.00
2023-08-18T03:56:37.517Z,100.00
2023-08-18T03:59:10.184Z,100.00
2023-08-18T04:01:42.741Z,100.00
2023-08-18T04:04:15.094Z,100.00
2023-08-18T04:06:47.919Z,100.00
2023-08-18T04:09:20.746Z,100.00
2023-08-18T04:11:54.834Z,100.00
2023-08-18T04:14:28.467Z,100.00
2023-08-18T04:17:02.425Z,100.00
2023-08-18T04:19:33.656Z,100.00
2023-08-18T04:22:06.428Z,100.00
2023-08-18T04:24:38.929Z,100.00
2023-08-18T04:27:13.150Z,100.00
2023-08-18T04:29:45.805Z,100.00
2023-08-18T04:32:18.547Z,100.00
2023-08-18T04:34:52.359Z,100.00
2023-08-18T04:37:25.196Z,100.00
2023-08-18T04:39:59.269Z,100.00
2023-08-18T04:42:32.044Z,100.00
2023-08-18T04:45:05.709Z,100.00
2023-08-18T04:47:38.576Z,100.00
2023-08-18T04:50:12.945Z,100.00
2023-08-18T04:52:45.557Z,100.00
2023-08-18T04:55:18.170Z,100.00
2023-08-18T04:57:50.558Z,100.00
2023-08-18T05:00:23.638Z,100.00
2023-08-18T05:02:56.345Z,100.00
2023-08-18T05:05:28.906Z,100.00
2023-08-18T05:08:01.461Z,100.00
2023-08-18T05:10:34.006Z,100.00
2023-08-18T05:13:06.720Z,100.00
2023-08-18T05:15:40.679Z,100.00
2023-08-18T05:18:13.146Z,100.00
2023-08-18T05:20:45.649Z,100.00
2023-08-18T05:23:19.681Z,100.00
2023-08-18T05:25:55.757Z,100.00
2023-08-18T05:28:30.398Z,100.00
2023-08-18T05:31:03.150Z,100.00
2023-08-18T05:33:35.726Z,100.00
2023-08-18T05:36:09.689Z,100.00
2023-08-18T05:38:42.154Z,100.00
2023-08-18T05:41:17.069Z,100.00
2023-08-18T05:43:51.596Z,100.00
2023-08-18T05:46:24.112Z,100.00
2023-08-18T05:48:56.466Z,100.00
2023-08-18T05:51:28.988Z,100.00
2023-08-18T05:54:01.375Z,100.00
2023-08-18T05:56:33.717Z,100.00
2023-08-18T05:59:07.739Z,100.00
2023-08-18T06:01:40.305Z,100.00
2023-08-18T06:04:12.841Z,100.00
2023-08-18T06:06:45.336Z,100.00
2023-08-18T06:09:17.921Z,100.00
2023-08-18T06:11:51.705Z,100.00
2023-08-18T06:14:24.225Z,100.00
2023-08-18T06:16:56.565Z,100.00
2023-08-18T06:19:28.927Z,100.00
2023-08-18T06:22:01.659Z,100.00
2023-08-18T06:24:42.056Z,100.00
2023-08-18T06:27:17.746Z,100.00
2023-08-18T06:29:50.312Z,100.00
2023-08-18T06:32:22.639Z,100.00
2023-08-18T06:34:56.433Z,100.00
2023-08-18T06:37:30.115Z,100.00
2023-08-18T06:40:02.624Z,100.00
2023-08-18T06:42:34.930Z,100.00
2023-08-18T06:45:08.304Z,100.00
2023-08-18T06:47:40.750Z,100.00
2023-08-18T06:50:14.145Z,100.00
2023-08-18T06:52:46.766Z,100.00
2023-08-18T06:55:20.454Z,100.00
2023-08-18T06:57:57.577Z,100.00
2023-08-18T07:00:29.974Z,100.00
2023-08-18T07:03:02.337Z,100.00
2023-08-18T07:05:35.012Z,100.00
2023-08-18T07:08:08.825Z,100.00
2023-08-18T07:10:41.845Z,100.00
2023-08-18T07:13:14.195Z,100.00
2023-08-18T07:15:46.956Z,100.00
2023-08-18T07:18:21.389Z,100.00
2023-08-18T07:20:54.466Z,100.00
2023-08-18T07:23:27.561Z,100.00
2023-08-18T07:26:00.136Z,100.00
2023-08-18T07:28:33.068Z,100.00
2023-08-18T07:31:09.286Z,100.00
2023-08-18T07:33:42.216Z,100.00
2023-08-18T07:36:14.957Z,100.00
2023-08-18T07:38:48.509Z,100.00
2023-08-18T07:41:21.147Z,100.00
2023-08-18T07:43:55.267Z,100.00
2023-08-18T07:46:28.103Z,100.00
2023-08-18T07:49:01.624Z,100.00
2023-08-18T07:51:34.487Z,100.00
2023-08-18T07:54:05.018Z,100.00
2023-08-18T07:56:37.683Z,100.00
2023-08-18T07:59:11.043Z,100.00
2023-08-18T08:01:43.608Z,100.00
2023-08-18T08:04:16.908Z,99.14
2023-08-18T08:06:51.399Z,95.23
2023-08-18T08:09:23.987Z,97.09
2023-08-18T08:11:54.733Z,97.83
2023-08-18T08:14:28.151Z,99.53
2023-08-18T08:17:01.418Z,98.24
2023-08-18T08:19:33.630Z,94.14
2023-08-18T08:22:11.478Z,95.59
2023-08-18T08:24:43.966Z,93.87
2023-08-18T08:27:17.375Z,95.94
2023-08-18T08:29:51.890Z,95.60
2023-08-18T08:32:24.468Z,94.03
2023-08-18T08:34:56.919Z,94.77
2023-08-18T08:37:29.403Z,92.99
2023-08-18T08:40:02.602Z,90.73
2023-08-18T08:42:35.717Z,92.32
2023-08-18T08:45:12.893Z,91.45
2023-08-18T08:47:45.812Z,91.40
2023-08-18T08:50:18.745Z,89.50
2023-08-18T08:52:55.015Z,88.64
2023-08-18T08:55:35.170Z,87.91
2023-08-18T08:58:13.972Z,88.33
2023-08-18T09:00:48.201Z,85.64
2023-08-18T09:03:22.476Z,85.67
2023-08-18T09:05:56.663Z,84.89
2023-08-18T09:08:29.330Z,84.41
2023-08-18T09:11:01.370Z,84.62
2023-08-18T09:13:35.733Z,85.29
2023-08-18T09:16:09.255Z,88.77
2023-08-18T09:18:44.435Z,86.52
2023-08-18T09:21:17.957Z,85.20
2023-08-18T09:23:56.755Z,87.39
2023-08-18T09:26:30.933Z,86.90
2023-08-18T09:29:04.157Z,86.64
2023-08-18T09:31:36.630Z,86.39
2023-08-18T09:34:07.895Z,83.94
2023-08-18T09:36:40.507Z,82.43
2023-08-18T09:39:11.758Z,83.06
2023-08-18T09:41:44.529Z,82.76
2023-08-18T09:44:17.140Z,83.75
2023-08-18T09:46:48.960Z,83.98
2023-08-18T09:49:27.758Z,83.46
2023-08-18T09:52:07.532Z,82.26
2023-08-18T09:54:52.688Z,85.98
2023-08-18T09:57:33.021Z,84.79
2023-08-18T10:00:07.572Z,84.59
2023-08-18T10:02:46.061Z,84.48
2023-08-18T10:05:19.998Z,83.22
2023-08-18T10:07:54.087Z,81.48
2023-08-18T10:10:27.772Z,81.69
2023-08-18T10:13:00.932Z,80.53
2023-08-18T10:15:34.290Z,79.80
2023-08-18T10:18:10.837Z,81.50
2023-08-18T10:20:52.179Z,81.63
2023-08-18T10:23:28.473Z,81.36
2023-08-18T10:26:01.717Z,79.13
2023-08-18T10:28:35.635Z,79.06
2023-08-18T10:31:12.850Z,80.62
2023-08-18T10:33:47.080Z,82.33
2023-08-18T10:36:28.489Z,81.90
2023-08-18T10:39:20.129Z,81.65
2023-08-18T10:42:08.984Z,82.33
2023-08-18T10:44:41.640Z,82.31
2023-08-18T10:47:25.338Z,81.64
2023-08-18T10:49:57.744Z,83.87
2023-08-18T10:52:32.385Z,82.95
2023-08-18T10:55:05.236Z,81.93
2023-08-18T10:57:38.955Z,82.63
2023-08-18T11:00:13.982Z,80.85
2023-08-18T11:02:47.116Z,80.97
2023-08-18T11:05:21.610Z,80.12
2023-08-18T11:07:54.449Z,80.40
2023-08-18T11:10:28.289Z,78.51
2023-08-18T11:13:01.399Z,77.45
2023-08-18T11:15:34.253Z,77.68
2023-08-18T11:18:08.136Z,78.74
2023-08-18T11:20:42.258Z,78.66
2023-08-18T11:23:14.650Z,75.58
2023-08-18T11:25:45.137Z,75.64
2023-08-18T11:28:18.929Z,75.13
2023-08-18T11:30:51.278Z,76.50
2023-08-18T11:33:27.184Z,76.71
2023-08-18T11:36:00.305Z,76.46
2023-08-18T11:38:34.703Z,76.75
2023-08-18T11:41:07.474Z,76.73
2023-08-18T11:43:40.772Z,77.03
2023-08-18T11:46:14.285Z,75.14
2023-08-18T11:48:47.702Z,73.57
2023-08-18T11:51:20.578Z,73.35
2023-08-18T11:53:54.508Z,74.04
2023-08-18T11:56:27.802Z,74.14
2023-08-18T11:59:00.457Z,72.61
2023-08-18T12:01:38.437Z,73.12
2023-08-18T12:04:14.849Z,72.34
2023-08-18T12:06:47.247Z,71.57
2023-08-18T12:09:20.316Z,71.06
2023-08-18T12:11:53.305Z,68.97
2023-08-18T12:14:28.559Z,69.44
2023-08-18T12:17:01.120Z,70.10
2023-08-18T12:19:36.508Z,70.98
2023-08-18T12:22:09.416Z,70.87
2023-08-18T12:24:42.185Z,69.37
2023-08-18T12:27:14.608Z,68.54
2023-08-18T12:29:47.266Z,68.24
2023-08-18T12:32:19.753Z,68.00
2023-08-18T12:34:51.877Z,66.74
2023-08-18T12:37:24.577Z,65.39
2023-08-18T12:39:57.524Z,64.00
2023-08-18T12:42:31.818Z,61.32
2023-08-18T12:45:04.478Z,62.04
2023-08-18T12:47:36.882Z,63.03
2023-08-18T12:50:08.346Z,62.33
2023-08-18T12:52:40.928Z,61.83
2023-08-18T12:55:12.547Z,61.64
2023-08-18T12:57:46.668Z,60.68
2023-08-18T13:00:20.177Z,62.52
2023-08-18T13:02:54.312Z,61.99
2023-08-18T13:05:26.760Z,62.07
2023-08-18T13:07:58.152Z,63.10
2023-08-18T13:10:35.698Z,62.93
2023-08-18T13:13:08.397Z,63.25
2023-08-18T13:15:41.522Z,64.95
2023-08-18T13:18:14.252Z,64.84
2023-08-18T13:20:46.919Z,64.95
2023-08-18T13:23:19.693Z,64.49
2023-08-18T13:25:54.526Z,63.18
2023-08-18T13:28:27.109Z,62.33
2023-08-18T13:30:59.842Z,63.70
2023-08-18T13:33:32.330Z,64.17
2023-08-18T13:36:03.096Z,63.97
2023-08-18T13:38:35.674Z,63.55
2023-08-18T13:41:06.186Z,66.05
2023-08-18T13:43:38.457Z,66.00
2023-08-18T13:46:10.947Z,66.55
2023-08-18T13:48:41.448Z,64.75
2023-08-18T13:51:13.717Z,66.00
2023-08-18T13:53:47.550Z,65.00
2023-08-18T13:56:20.537Z,66.11
2023-08-18T13:58:52.916Z,65.27
2023-08-18T14:01:25.455Z,66.07
2023-08-18T14:03:57.853Z,67.46
2023-08-18T14:06:30.282Z,65.79
2023-08-18T14:09:04.182Z,63.67
2023-08-18T14:11:37.029Z,63.49
2023-08-18T14:14:09.852Z,65.45
2023-08-18T14:16:42.524Z,66.57
2023-08-18T14:19:18.024Z,67.09
2023-08-18T14:21:50.782Z,64.93
2023-08-18T14:24:23.616Z,64.85
2023-08-18T14:26:56.120Z,62.87
2023-08-18T14:29:26.690Z,63.04
2023-08-18T14:31:59.111Z,65.04
2023-08-18T14:34:29.628Z,67.46
2023-08-18T14:37:03.889Z,67.71
2023-08-18T14:39:36.201Z,69.94
2023-08-18T14:42:09.184Z,68.46
2023-08-18T14:44:41.583Z,71.66
2023-08-18T14:47:14.625Z,73.28
2023-08-18T14:49:47.960Z,72.55
2023-08-18T14:52:20.535Z,73.17
2023-08-18T14:54:53.009Z,79.39
2023-08-18T14:57:25.757Z,82.04
2023-08-18T14:59:58.179Z,78.45
2023-08-18T15:02:30.920Z,78.82
2023-08-18T15:05:03.680Z,78.81
2023-08-18T15:07:36.321Z,78.38
2023-08-18T15:10:08.017Z,78.04
2023-08-18T15:12:41.338Z,77.71
2023-08-18T15:15:15.130Z,80.31
2023-08-18T15:17:50.210Z,80.63
2023-08-18T15:20:23.725Z,84.51
2023-08-18T15:22:56.487Z,83.49
2023-08-18T15:25:31.243Z,82.19
2023-08-18T15:28:05.040Z,81.49
2023-08-18T15:30:38.061Z,81.30
2023-08-18T15:33:11.279Z,82.46
2023-08-18T15:35:47.542Z,84.41
2023-08-18T15:38:20.775Z,85.88
2023-08-18T15:40:55.016Z,87.37
2023-08-18T15:43:28.184Z,89.34
2023-08-18T15:46:01.767Z,89.17
2023-08-18T15:48:34.784Z,87.67
2023-08-18T15:51:10.876Z,87.03
2023-08-18T15:53:43.735Z,85.88
2023-08-18T15:56:16.825Z,85.51
2023-08-18T15:58:50.581Z,94.30
2023-08-18T16:01:23.873Z,94.78
2023-08-18T16:03:56.537Z,90.33
2023-08-18T16:06:29.535Z,88.65
2023-08-18T16:09:07.077Z,87.94
2023-08-18T16:11:39.817Z,88.26
2023-08-18T16:14:39.195Z,88.69
2023-08-18T16:17:06.314Z,88.85
2023-08-18T16:19:40.591Z,87.21
2023-08-18T16:22:13.781Z,86.40
2023-08-18T16:24:49.698Z,87.02
2023-08-18T16:27:22.437Z,87.33
2023-08-18T16:29:58.619Z,88.03
2023-08-18T16:32:33.190Z,89.44
2023-08-18T16:35:06.419Z,90.43
2023-08-18T16:37:40.457Z,91.67
2023-08-18T16:40:14.015Z,91.48
2023-08-18T16:42:47.103Z,92.15
2023-08-18T16:45:20.823Z,93.07
2023-08-18T16:47:53.768Z,93.34
2023-08-18T16:50:26.787Z,94.61
2023-08-18T16:52:59.672Z,95.62
2023-08-18T16:55:32.498Z,94.98
2023-08-18T16:58:03.300Z,95.10
2023-08-18T17:00:40.731Z,95.79
2023-08-18T17:03:16.707Z,95.13
2023-08-18T17:05:51.338Z,95.25
2023-08-18T17:08:25.743Z,94.96
2023-08-18T17:11:00.866Z,96.07
2023-08-18T17:13:33.619Z,96.20
2023-08-18T17:16:04.891Z,97.41
2023-08-18T17:18:38.658Z,98.83
2023-08-18T17:21:11.540Z,99.36
2023-08-18T17:23:45.580Z,99.33
2023-08-18T17:26:26.112Z,99.79
2023-08-18T17:29:00.656Z,100.00
2023-08-18T17:31:37.343Z,100.00
2023-08-18T17:34:14.424Z,100.00
2023-08-18T17:36:55.667Z,100.00
2023-08-18T17:39:40.749Z,100.00
2023-08-18T17:42:23.562Z,100.00
2023-08-18T17:44:59.097Z,100.00
2023-08-18T17:47:35.770Z,100.00
2023-08-18T17:50:24.099Z,100.00
2023-08-18T17:53:00.426Z,100.00
2023-08-18T17:55:46.399Z,100.00
2023-08-18T17:58:27.096Z,100.00
2023-08-18T18:01:07.177Z,100.00
2023-08-18T18:03:50.154Z,100.00
2023-08-18T18:06:27.329Z,100.00
2023-08-18T18:09:07.950Z,100.00
2023-08-18T18:11:46.655Z,100.00
2023-08-18T18:14:25.099Z,100.00
2023-08-18T18:17:03.423Z,100.00
2023-08-18T18:19:45.027Z,100.00
2023-08-18T18:22:23.616Z,100.00
2023-08-18T18:25:04.176Z,100.00
2023-08-18T18:27:44.221Z,100.00
2023-08-18T18:30:27.666Z,100.00
2023-08-18T18:33:02.955Z,100.00
2023-08-18T18:35:39.623Z,100.00
2023-08-18T18:38:16.191Z,100.00
2023-08-18T18:40:51.507Z,100.00
2023-08-18T18:43:27.347Z,100.00
2023-08-18T18:46:05.498Z,100.00
2023-08-18T18:48:41.983Z,100.00
2023-08-18T18:51:18.834Z,100.00
2023-08-18T18:53:56.779Z,100.00
2023-08-18T18:56:35.550Z,100.00
2023-08-18T18:59:12.859Z,100.00
2023-08-18T19:01:49.298Z,100.00
2023-08-18T19:04:28.099Z,100.00
2023-08-18T19:07:05.380Z,100.00
2023-08-18T19:09:43.261Z,100.00
2023-08-18T19:12:20.307Z,100.00
2023-08-18T19:15:03.045Z,100.00
2023-08-18T19:17:40.214Z,100.00
2023-08-18T19:20:31.606Z,100.00
2023-08-18T19:23:08.386Z,100.00
2023-08-18T19:25:46.605Z,100.00
2023-08-18T19:28:23.178Z,100.00
2023-08-18T19:31:03.426Z,100.00
2023-08-18T19:33:40.655Z,100.00
2023-08-18T19:36:19.190Z,100.00
2023-08-18T19:38:57.258Z,100.00
2023-08-18T19:41:35.108Z,100.00
2023-08-18T19:44:24.578Z,100.00
2023-08-18T19:47:00.183Z,100.00
2023-08-18T19:49:32.777Z,100.00
2023-08-18T19:52:05.858Z,100.00
2023-08-18T19:54:36.561Z,100.00
2023-08-18T19:57:09.708Z,100.00
2023-08-18T19:59:40.735Z,100.00
2023-08-18T20:02:13.949Z,100.00
2023-08-18T20:04:47.459Z,100.00
2023-08-18T20:07:20.819Z,100.00
2023-08-18T20:09:54.346Z,100.00
2023-08-18T20:12:31.431Z,100.00
2023-08-18T20:15:06.456Z,100.00
2023-08-18T20:17:40.482Z,100.00
2023-08-18T20:20:14.466Z,100.00
2023-08-18T20:22:47.625Z,100.00
2023-08-18T20:25:23.158Z,100.00
2023-08-18T20:27:58.338Z,100.00
2023-08-18T20:30:31.747Z,100.00
2023-08-18T20:33:05.022Z,100.00
2023-08-18T20:35:37.820Z,100.00
2023-08-18T20:38:08.892Z,100.00
2023-08-18T20:40:41.700Z,100.00
2023-08-18T20:43:14.791Z,100.00
2023-08-18T20:45:45.704Z,100.00
2023-08-18T20:48:18.534Z,100.00
2023-08-18T20:50:59.457Z,100.00
2023-08-18T20:53:33.018Z,100.00
2023-08-18T20:56:08.275Z,100.00
2023-08-18T20:58:46.742Z,100.00
2023-08-18T21:01:21.608Z,100.00
2023-08-18T21:03:54.723Z,100.00
2023-08-18T21:06:28.259Z,100.00
2023-08-18T21:09:02.938Z,100.00
2023-08-18T21:11:35.935Z,100.00
2023-08-18T21:14:09.417Z,100.00
2023-08-18T21:16:46.312Z,100.00
2023-08-18T21:19:19.142Z,100.00
2023-08-18T21:21:52.223Z,100.00
2023-08-18T21:24:25.463Z,100.00
2023-08-18T21:26:59.897Z,100.00
2023-08-18T21:29:32.738Z,100.00
2023-08-18T21:32:05.706Z,100.00
2023-08-18T21:34:38.464Z,100.00
2023-08-18T21:37:13.462Z,100.00
2023-08-18T21:39:47.661Z,100.00
2023-08-18T21:42:20.699Z,100.00
2023-08-18T21:44:51.578Z,100.00
2023-08-18T21:47:24.552Z,100.00
2023-08-18T21:49:55.378Z,100.00
2023-08-18T21:52:28.257Z,100.00
2023-08-18T21:54:59.421Z,100.00
2023-08-18T21:57:32.137Z,100.00
2023-08-18T22:00:05.664Z,100.00
2023-08-18T22:02:47.773Z,100.00
2023-08-18T22:05:20.501Z,100.00
2023-08-18T22:07:53.263Z,100.00
2023-08-18T22:10:26.293Z,100.00
2023-08-18T22:12:59.460Z,100.00
2023-08-18T22:15:33.345Z,100.00
2023-08-18T22:18:06.899Z,100.00
2023-08-18T22:20:39.740Z,100.00
2023-08-18T22:23:12.601Z,100.00
2023-08-18T22:25:45.820Z,100.00
2023-08-18T22:28:16.458Z,100.00
2023-08-18T22:30:49.457Z,100.00
2023-08-18T22:33:21.524Z,100.00
2023-08-18T22:36:01.471Z,100.00
2023-08-18T22:38:34.417Z,100.00
2023-08-18T22:41:07.624Z,100.00
2023-08-18T22:43:39.814Z,100.00
2023-08-18T22:46:16.022Z,100.00
2023-08-18T22:48:48.975Z,100.00
2023-08-18T22:51:21.936Z,100.00
2023-08-18T22:53:55.379Z,100.00
2023-08-18T22:56:28.574Z,100.00
2023-08-18T22:59:03.540Z,100.00
2023-08-18T23:01:36.615Z,100.00
2023-08-18T23:04:09.437Z,100.00
2023-08-18T23:06:42.377Z,100.00
2023-08-18T23:09:15.256Z,100.00
2023-08-18T23:11:48.418Z,100.00
2023-08-18T23:14:19.459Z,100.00
2023-08-18T23:16:53.022Z,100.00
2023-08-18T23:19:25.796Z,100.00
2023-08-18T23:21:57.103Z,100.00
2023-08-18T23:24:29.839Z,100.00
2023-08-18T23:27:02.498Z,100.00
2023-08-18T23:29:35.464Z,100.00
2023-08-18T23:32:06.628Z,100.00
2023-08-18T23:34:39.540Z,100.00
2023-08-18T23:37:12.623Z,100.00
2023-08-18T23:39:45.981Z,100.00
2023-08-18T23:42:19.148Z,100.00
2023-08-18T23:44:50.319Z,100.00
2023-08-18T23:47:23.245Z,100.00
2023-08-18T23:49:56.019Z,100.00
2023-08-18T23:52:29.042Z,100.00
2023-08-18T23:55:01.982Z,100.00
2023-08-18T23:57:34.983Z,100.00
